Time;durP1;ratioP1;P1;durP2;ratioP2;P2;SDS_P1;SDS_P2;PMS_P1;PMS_P2;Temp;Humidity;BMP_temperature;BMP_pressure;BME280_temperature;BME280_humidity;BME280_pressure;Samples;Min_cycle;Max_cycle;Signal;HPM_P1;HPM_P2
2022/07/27 00:01:38;;;;;;;21.33;11.07;;;13.30;99.90;;;;;;4439888;28;659631;-66
2022/07/27 00:04:27;;;;;;;15.97;10.77;;;13.20;99.90;;;;;;4419212;28;659239;-66
2022/07/27 00:07:14;;;;;;;17.03;11.30;;;13.20;99.90;;;;;;4434491;28;658898;-67
2022/07/27 00:10:01;;;;;;;121.03;12.80;;;13.20;99.90;;;;;;4419172;28;658683;-67
2022/07/27 00:12:48;;;;;;;18.10;10.70;;;13.10;99.90;;;;;;4439565;28;660475;-66
2022/07/27 00:15:35;;;;;;;16.43;10.40;;;13.10;99.90;;;;;;4423403;28;659505;-67
2022/07/27 00:18:22;;;;;;;15.82;9.90;;;13.10;99.90;;;;;;4429707;28;659542;-67
2022/07/27 00:21:11;;;;;;;15.20;9.60;;;13.10;99.90;;;;;;4439333;28;657319;-67
2022/07/27 00:23:58;;;;;;;16.33;9.83;;;13.10;99.90;;;;;;4417569;28;657615;-66
2022/07/27 00:26:45;;;;;;;17.05;9.57;;;13.00;99.90;;;;;;4422559;28;657971;-67
2022/07/27 00:29:32;;;;;;;20.50;9.50;;;13.00;99.90;;;;;;4432329;28;658349;-66
2022/07/27 00:32:19;;;;;;;16.53;9.80;;;13.10;99.90;;;;;;4437787;28;658040;-67
2022/07/27 00:35:08;;;;;;;17.57;9.97;;;13.00;99.90;;;;;;4420364;28;658181;-66
2022/07/27 00:37:57;;;;;;;14.90;9.97;;;13.00;99.90;;;;;;4428095;28;659616;-67
2022/07/27 00:40:44;;;;;;;17.37;9.97;;;12.90;99.90;;;;;;4449057;28;657778;-66
2022/07/27 00:43:32;;;;;;;17.97;9.63;;;13.00;99.90;;;;;;4425939;28;659364;-66
2022/07/27 00:46:19;;;;;;;15.93;9.67;;;12.90;99.90;;;;;;4442003;28;657585;-66
2022/07/27 00:49:06;;;;;;;14.57;9.77;;;12.90;99.90;;;;;;4424311;28;658035;-66
2022/07/27 00:51:54;;;;;;;14.47;9.60;;;12.90;99.90;;;;;;4436051;28;658631;-67
2022/07/27 00:54:42;;;;;;;17.57;10.20;;;12.70;99.90;;;;;;4417154;28;657579;-66
2022/07/27 00:57:29;;;;;;;20.77;9.70;;;12.70;99.90;;;;;;4434924;28;659304;-66
2022/07/27 01:00:17;;;;;;;14.80;10.30;;;12.70;99.90;;;;;;4415837;28;658791;-68
2022/07/27 01:03:04;;;;;;;23.47;10.40;;;12.70;99.90;;;;;;4424329;28;658517;-66
2022/07/27 01:05:52;;;;;;;20.73;10.13;;;12.70;99.90;;;;;;4421113;28;659112;-66
2022/07/27 01:08:41;;;;;;;14.23;10.00;;;12.70;99.90;;;;;;4441253;28;659343;-66
2022/07/27 01:11:29;;;;;;;22.90;12.80;;;12.80;99.90;;;;;;4412108;28;658786;-66
2022/07/27 01:14:17;;;;;;;18.17;11.10;;;12.90;99.90;;;;;;4405816;28;658931;-66
2022/07/27 01:17:04;;;;;;;15.13;9.87;;;13.00;99.90;;;;;;4437108;28;658147;-66
2022/07/27 01:19:51;;;;;;;21.92;11.45;;;12.80;99.90;;;;;;4417012;28;657512;-66
2022/07/27 01:22:39;;;;;;;15.43;9.30;;;12.80;99.90;;;;;;4423247;28;659387;-66
2022/07/27 01:25:26;;;;;;;18.10;11.50;;;12.80;99.90;;;;;;4416812;28;657693;-68
2022/07/27 01:28:13;;;;;;;15.30;9.60;;;12.70;99.90;;;;;;4439856;28;659316;-66
2022/07/27 01:31:01;;;;;;;20.53;12.00;;;12.80;99.90;;;;;;4422183;28;657949;-66
2022/07/27 01:33:48;;;;;;;18.20;11.90;;;12.80;99.90;;;;;;4430070;28;658749;-66
2022/07/27 01:36:35;;;;;;;22.33;12.25;;;12.90;99.90;;;;;;4421301;28;659223;-67
2022/07/27 01:39:24;;;;;;;22.33;13.07;;;13.10;99.90;;;;;;4436649;28;658520;-67
2022/07/27 01:42:11;;;;;;;23.07;13.40;;;13.20;99.90;;;;;;4417119;28;658427;-67
2022/07/27 01:44:58;;;;;;;22.30;12.73;;;13.30;99.90;;;;;;4437936;28;660485;-66
2022/07/27 01:47:45;;;;;;;22.33;13.80;;;13.40;99.90;;;;;;4405556;28;658427;-67
2022/07/27 01:50:32;;;;;;;21.43;13.87;;;13.40;99.90;;;;;;4441274;28;658775;-66
2022/07/27 01:53:20;;;;;;;22.70;14.00;;;13.40;99.90;;;;;;4434662;28;659039;-67
2022/07/27 01:56:10;;;;;;;24.13;14.87;;;13.50;99.90;;;;;;4416892;28;660361;-66
2022/07/27 01:58:58;;;;;;;25.03;15.17;;;13.60;99.90;;;;;;4402230;28;660333;-66
2022/07/27 02:01:46;;;;;;;31.20;15.77;;;13.60;99.90;;;;;;4415609;28;658588;-67
2022/07/27 02:04:33;;;;;;;28.27;14.97;;;13.60;99.90;;;;;;4439867;28;658659;-66
2022/07/27 02:07:20;;;;;;;30.40;14.47;;;13.70;99.90;;;;;;4419556;28;659534;-67
2022/07/27 02:10:07;;;;;;;25.67;14.03;;;13.70;99.90;;;;;;4438409;28;658686;-66
2022/07/27 02:12:55;;;;;;;19.37;13.47;;;13.60;99.90;;;;;;4422480;28;658828;-67
2022/07/27 02:15:42;;;;;;;20.80;13.23;;;13.60;99.90;;;;;;4436253;28;660098;-66
2022/07/27 02:18:30;;;;;;;20.80;12.90;;;13.70;99.90;;;;;;4433304;28;658492;-66
2022/07/27 02:21:17;;;;;;;30.88;14.02;;;13.70;99.90;;;;;;4443292;28;659249;-66
2022/07/27 02:24:05;;;;;;;22.17;14.03;;;13.70;99.90;;;;;;4444971;28;658323;-66
2022/07/27 02:26:52;;;;;;;25.67;14.07;;;13.60;99.90;;;;;;4417869;28;658995;-66
2022/07/27 02:29:41;;;;;;;25.20;13.20;;;13.70;99.90;;;;;;4438468;28;658907;-66
2022/07/27 02:32:28;;;;;;;30.27;13.47;;;13.60;99.90;;;;;;4402091;28;659057;-66
2022/07/27 02:35:15;;;;;;;27.73;15.50;;;13.70;99.90;;;;;;4416383;28;658693;-66
2022/07/27 02:38:02;;;;;;;31.37;15.03;;;13.50;99.90;;;;;;4441363;28;659236;-66
2022/07/27 02:40:49;;;;;;;27.87;15.93;;;13.60;99.90;;;;;;4441751;28;658313;-66
2022/07/27 02:43:36;;;;;;;27.10;16.20;;;13.60;99.90;;;;;;4417734;28;658694;-66
2022/07/27 02:46:25;;;;;;;29.73;16.67;;;13.70;99.90;;;;;;4425591;28;659209;-66
2022/07/27 02:49:12;;;;;;;34.20;18.23;;;13.70;99.90;;;;;;4404562;28;659419;-66
2022/07/27 02:51:59;;;;;;;28.60;16.40;;;13.60;99.90;;;;;;4441341;28;658652;-66
2022/07/27 02:54:46;;;;;;;26.17;17.03;;;13.60;99.90;;;;;;4413183;28;659029;-66
2022/07/27 02:57:36;;;;;;;30.73;16.37;;;13.60;99.90;;;;;;4434548;28;658317;-66
2022/07/27 03:00:23;;;;;;;36.93;15.40;;;13.60;99.90;;;;;;4412172;28;659507;-67
2022/07/27 03:03:12;;;;;;;26.87;15.50;;;13.60;99.90;;;;;;4418263;28;658593;-68
2022/07/27 03:05:59;;;;;;;26.37;14.80;;;13.50;99.90;;;;;;4436259;28;658796;-67
2022/07/27 03:08:46;;;;;;;24.33;14.50;;;13.50;99.90;;;;;;4414216;28;658419;-66
2022/07/27 03:11:33;;;;;;;23.40;14.83;;;13.40;99.90;;;;;;4434565;28;660323;-67
2022/07/27 03:14:20;;;;;;;22.30;14.20;;;13.40;99.90;;;;;;4417781;28;658853;-68
2022/07/27 03:17:07;;;;;;;28.37;15.87;;;13.40;99.90;;;;;;4439991;28;659509;-67
2022/07/27 03:19:56;;;;;;;21.37;12.97;;;13.30;99.90;;;;;;4433024;28;659280;-67
2022/07/27 03:22:43;;;;;;;24.43;14.63;;;13.30;99.90;;;;;;4412703;28;659198;-69
2022/07/27 03:25:30;;;;;;;26.93;14.67;;;13.30;99.90;;;;;;4425539;28;658646;-67
2022/07/27 03:28:17;;;;;;;26.90;16.43;;;13.30;99.90;;;;;;4439461;28;658555;-66
2022/07/27 03:31:04;;;;;;;33.20;15.77;;;13.30;99.90;;;;;;4433029;28;658821;-67
2022/07/27 03:33:51;;;;;;;23.13;13.97;;;13.20;99.90;;;;;;4404264;28;658334;-66
2022/07/27 03:36:40;;;;;;;23.97;13.30;;;13.20;99.90;;;;;;4437751;28;659059;-66
2022/07/27 03:39:27;;;;;;;24.10;13.30;;;13.20;99.90;;;;;;4411785;28;659785;-67
2022/07/27 03:42:14;;;;;;;22.90;14.43;;;13.10;99.90;;;;;;4437655;28;658058;-67
2022/07/27 03:45:01;;;;;;;20.38;12.75;;;13.10;99.90;;;;;;4401950;28;658489;-67
2022/07/27 03:47:48;;;;;;;30.80;17.97;;;13.20;99.90;;;;;;4421944;28;658506;-67
2022/07/27 03:50:35;;;;;;;29.37;15.73;;;13.20;99.90;;;;;;4413852;28;658697;-67
2022/07/27 03:53:24;;;;;;;33.43;17.77;;;13.20;99.90;;;;;;4433559;28;659991;-67
2022/07/27 03:56:11;;;;;;;32.77;18.70;;;13.20;99.90;;;;;;4404943;28;659017;-66
2022/07/27 03:58:58;;;;;;;31.65;17.23;;;13.20;99.90;;;;;;4442394;28;659520;-67
2022/07/27 04:01:45;;;;;;;24.03;15.83;;;13.20;99.90;;;;;;4416830;28;658997;-67
2022/07/27 04:04:32;;;;;;;32.37;17.07;;;13.10;99.90;;;;;;4445718;28;659909;-67
2022/07/27 04:07:20;;;;;;;27.17;16.33;;;13.10;99.90;;;;;;4436920;28;658676;-67
2022/07/27 04:10:10;;;;;;;27.57;17.33;;;13.10;99.90;;;;;;4437352;28;660216;-67
2022/07/27 04:12:57;;;;;;;28.07;16.80;;;13.10;99.90;;;;;;4401201;28;659975;-67
2022/07/27 04:15:44;;;;;;;31.80;18.60;;;13.20;99.90;;;;;;4426090;28;659931;-67
2022/07/27 04:18:31;;;;;;;31.50;19.27;;;13.20;99.90;;;;;;4422979;28;659976;-67
2022/07/27 04:21:18;;;;;;;31.63;19.07;;;13.30;99.90;;;;;;4441836;28;659234;-66
2022/07/27 04:24:06;;;;;;;34.67;20.03;;;13.40;99.90;;;;;;4422022;28;658487;-67
2022/07/27 04:26:55;;;;;;;36.80;20.77;;;13.40;99.90;;;;;;4442085;28;658750;-66
2022/07/27 04:29:42;;;;;;;43.20;20.90;;;13.50;99.90;;;;;;4418525;28;658892;-66
2022/07/27 04:32:29;;;;;;;43.03;21.83;;;13.50;99.90;;;;;;4446978;28;658487;-67
2022/07/27 04:35:16;;;;;;;45.03;24.60;;;13.60;99.90;;;;;;4423785;28;658462;-67
2022/07/27 04:38:03;;;;;;;50.47;24.70;;;13.70;99.90;;;;;;4422427;28;658914;-67
2022/07/27 04:40:50;;;;;;;50.60;26.00;;;13.70;99.90;;;;;;4413256;28;658560;-67
2022/07/27 04:43:39;;;;;;;48.50;24.53;;;13.80;99.90;;;;;;4426246;28;659685;-67
2022/07/27 04:46:26;;;;;;;47.97;24.73;;;14.00;99.90;;;;;;4418394;28;658338;-66
2022/07/27 04:49:13;;;;;;;48.63;26.80;;;14.20;99.90;;;;;;4430860;28;659702;-67
2022/07/27 04:52:00;;;;;;;46.73;26.63;;;14.40;99.90;;;;;;4420350;28;658840;-67
2022/07/27 04:54:51;;;;;;;51.10;25.77;;;14.50;99.90;;;;;;4442239;28;659921;-66
2022/07/27 04:57:40;;;;;;;49.23;26.60;;;14.70;99.90;;;;;;4418156;28;659408;-66
2022/07/27 05:00:29;;;;;;;49.57;26.17;;;14.80;99.90;;;;;;4421325;28;659611;-68
2022/07/27 05:03:16;;;;;;;47.87;27.00;;;15.00;99.90;;;;;;4414539;28;658770;-67
2022/07/27 05:06:03;;;;;;;43.30;24.37;;;15.10;99.90;;;;;;4418654;28;659349;-66
2022/07/27 05:08:50;;;;;;;49.90;27.13;;;15.30;99.90;;;;;;4417031;28;658994;-67
2022/07/27 05:11:37;;;;;;;49.65;28.02;;;15.20;99.90;;;;;;4439956;28;659348;-66
2022/07/27 05:14:24;;;;;;;51.70;28.47;;;15.10;99.90;;;;;;4436523;28;658824;-68
2022/07/27 05:17:13;;;;;;;55.00;27.93;;;15.30;99.90;;;;;;4409615;28;658799;-67
2022/07/27 05:20:00;;;;;;;52.05;27.77;;;15.30;99.90;;;;;;4423965;28;659124;-68
2022/07/27 05:22:47;;;;;;;50.33;27.17;;;15.50;99.90;;;;;;4439107;28;658373;-67
2022/07/27 05:25:34;;;;;;;52.87;29.60;;;15.70;99.90;;;;;;4434290;28;659852;-67
2022/07/27 05:28:21;;;;;;;52.60;29.60;;;15.60;99.90;;;;;;4419138;28;659211;-67
2022/07/27 05:31:08;;;;;;;48.93;29.73;;;15.80;99.90;;;;;;4438623;28;658419;-67
2022/07/27 05:33:57;;;;;;;53.93;29.77;;;15.90;99.90;;;;;;4421932;28;658740;-67
2022/07/27 05:36:44;;;;;;;57.27;28.57;;;16.00;99.90;;;;;;4439318;28;658959;-67
2022/07/27 05:39:31;;;;;;;53.77;29.23;;;16.00;99.90;;;;;;4420584;28;658806;-67
2022/07/27 05:42:18;;;;;;;50.67;29.03;;;16.00;99.90;;;;;;4441481;28;659520;-67
2022/07/27 05:45:06;;;;;;;59.97;31.67;;;16.00;99.90;;;;;;4418738;28;658426;-67
2022/07/27 05:47:54;;;;;;;50.70;29.73;;;15.50;99.90;;;;;;4457557;28;658781;-65
2022/07/27 05:50:42;;;;;;;57.10;30.10;;;15.60;99.90;;;;;;4498792;28;658639;-64
2022/07/27 05:53:29;;;;;;;47.73;27.30;;;15.80;99.90;;;;;;4438170;28;658890;-64
2022/07/27 05:56:16;;;;;;;56.80;29.23;;;15.90;99.90;;;;;;4423202;28;658982;-66
2022/07/27 05:59:03;;;;;;;51.23;27.83;;;16.00;99.90;;;;;;4436230;28;658796;-65
2022/07/27 06:01:51;;;;;;;53.37;26.73;;;16.20;99.90;;;;;;4417765;28;658482;-65
2022/07/27 06:04:38;;;;;;;51.23;25.67;;;16.30;99.90;;;;;;4438429;28;658985;-65
2022/07/27 06:10:32;;;;;;;48.97;24.53;;;16.70;99.90;;;;;;4413390;28;658467;-65
2022/07/27 06:13:19;;;;;;;52.37;25.50;;;16.60;99.90;;;;;;4414554;28;658579;-65
2022/07/27 06:16:06;;;;;;;45.83;24.13;;;16.80;99.90;;;;;;4413993;28;658634;-65
2022/07/27 06:18:53;;;;;;;44.10;23.47;;;16.90;99.90;;;;;;4421338;28;658508;-65
2022/07/27 06:21:40;;;;;;;42.73;22.33;;;17.00;99.90;;;;;;4397854;28;658525;-66
2022/07/27 06:24:29;;;;;;;40.93;23.00;;;16.90;99.90;;;;;;4421588;28;659463;-64
2022/07/27 06:27:16;;;;;;;35.60;21.70;;;17.10;99.90;;;;;;4405005;28;659158;-65
2022/07/27 06:30:03;;;;;;;37.90;22.57;;;17.10;99.90;;;;;;4424979;28;659329;-65
2022/07/27 06:32:50;;;;;;;39.00;22.23;;;17.20;99.90;;;;;;4423467;28;658723;-66
2022/07/27 06:35:37;;;;;;;37.20;21.42;;;17.50;99.90;;;;;;4440450;28;659908;-65
2022/07/27 06:38:26;;;;;;;35.33;18.90;;;17.70;99.90;;;;;;4439320;28;658469;-66
2022/07/27 06:41:14;;;;;;;25.60;16.17;;;17.90;99.90;;;;;;4418376;28;659740;-65
2022/07/27 06:44:01;;;;;;;25.70;16.87;;;18.30;99.90;;;;;;4421287;28;658781;-65
2022/07/27 06:46:48;;;;;;;30.93;18.60;;;18.40;99.90;;;;;;4438989;28;658450;-65
2022/07/27 06:49:35;;;;;;;25.90;17.30;;;18.60;99.90;;;;;;4421049;28;658715;-65
2022/07/27 06:52:23;;;;;;;20.53;13.00;;;18.80;99.90;;;;;;4423079;28;658181;-65
2022/07/27 06:55:10;;;;;;;21.40;13.30;;;18.80;99.90;;;;;;4432454;28;658923;-66
2022/07/27 06:57:59;;;;;;;30.50;18.48;;;18.80;99.90;;;;;;4426338;28;659290;-65
2022/07/27 07:00:46;;;;;;;40.80;22.73;;;18.60;99.90;;;;;;4418007;28;658548;-65
2022/07/27 07:03:33;;;;;;;37.90;17.43;;;18.40;99.90;;;;;;4437470;28;659185;-66
2022/07/27 07:06:20;;;;;;;39.67;20.30;;;18.20;99.90;;;;;;4418979;28;658822;-66
2022/07/27 07:09:07;;;;;;;39.00;19.63;;;17.60;99.90;;;;;;4437413;28;659067;-64
2022/07/27 07:11:54;;;;;;;62.97;31.37;;;17.20;99.90;;;;;;4426260;28;659183;-65
2022/07/27 07:14:43;;;;;;;67.70;33.17;;;16.80;99.90;;;;;;4416805;28;659022;-65
2022/07/27 07:17:30;;;;;;;67.23;29.33;;;16.70;99.90;;;;;;4424115;28;659025;-65
2022/07/27 07:20:17;;;;;;;52.50;29.03;;;17.50;99.90;;;;;;4430001;28;659087;-64
2022/07/27 07:23:04;;;;;;;55.00;29.23;;;17.80;99.90;;;;;;4442090;28;658295;-65
2022/07/27 07:25:51;;;;;;;41.70;24.50;;;18.00;99.90;;;;;;4420573;28;659285;-65
2022/07/27 07:28:39;;;;;;;49.77;25.70;;;18.60;99.90;;;;;;4434782;28;659178;-65
2022/07/27 07:31:27;;;;;;;40.33;23.30;;;18.70;99.90;;;;;;4423111;28;658502;-65
2022/07/27 07:34:14;;;;;;;41.93;21.97;;;18.90;99.90;;;;;;4427835;28;659078;-65
2022/07/27 07:37:01;;;;;;;41.60;22.07;;;19.00;99.90;;;;;;4409435;28;658644;-64
2022/07/27 07:39:48;;;;;;;47.97;24.73;;;18.80;99.90;;;;;;4444784;28;658771;-65
2022/07/27 07:42:51;;;;;;;42.90;23.00;;;18.70;99.90;;;;;;4399134;28;658586;-65
2022/07/27 07:45:38;;;;;;;41.47;22.67;;;18.70;99.90;;;;;;4410130;28;659666;-65
2022/07/27 07:48:26;;;;;;;37.07;22.60;;;18.40;99.90;;;;;;4410068;28;659199;-65
2022/07/27 07:51:13;;;;;;;40.57;23.70;;;18.80;99.90;;;;;;4432586;28;659070;-65
2022/07/27 07:54:01;;;;;;;36.63;23.03;;;18.70;99.90;;;;;;4418326;28;659316;-65
2022/07/27 07:56:48;;;;;;;35.67;20.53;;;19.00;99.90;;;;;;4436532;28;660141;-65
2022/07/27 07:59:35;;;;;;;30.60;19.10;;;19.20;99.90;;;;;;4423815;28;658760;-65
2022/07/27 08:02:22;;;;;;;39.50;21.85;;;19.00;99.90;;;;;;4448704;28;659442;-65
2022/07/27 08:05:11;;;;;;;37.07;22.60;;;19.40;99.90;;;;;;4434129;28;659373;-65
2022/07/27 08:07:58;;;;;;;32.43;19.90;;;19.20;99.90;;;;;;4419738;28;659696;-65
2022/07/27 08:10:45;;;;;;;39.47;21.57;;;19.20;99.90;;;;;;4422829;28;658955;-65
2022/07/27 08:13:32;;;;;;;34.07;20.97;;;19.20;99.90;;;;;;4437818;28;659501;-66
2022/07/27 08:16:19;;;;;;;34.77;20.10;;;19.30;99.90;;;;;;4438849;28;659015;-64
2022/07/27 08:19:09;;;;;;;34.83;20.33;;;19.30;99.90;;;;;;4419506;28;659294;-65
2022/07/27 08:21:58;;;;;;;33.60;19.33;;;19.30;99.90;;;;;;4429696;28;659158;-65
2022/07/27 08:24:45;;;;;;;34.47;20.40;;;19.50;99.90;;;;;;4409639;28;659433;-66
2022/07/27 08:27:32;;;;;;;38.50;20.93;;;19.40;99.90;;;;;;4445870;28;658420;-65
2022/07/27 08:30:19;;;;;;;36.93;21.13;;;19.50;99.90;;;;;;4431935;28;658991;-65
2022/07/27 08:33:07;;;;;;;35.67;21.10;;;19.50;99.90;;;;;;4421313;28;659197;-64
2022/07/27 08:35:56;;;;;;;40.70;22.93;;;18.80;99.90;;;;;;4433435;28;658806;-65
2022/07/27 08:38:44;;;;;;;32.43;18.63;;;18.80;99.90;;;;;;4417706;28;659691;-65
2022/07/27 08:41:32;;;;;;;35.70;20.30;;;19.30;99.90;;;;;;4413878;28;658994;-64
2022/07/27 08:44:19;;;;;;;34.17;20.83;;;19.40;99.90;;;;;;4440208;28;659295;-66
2022/07/27 08:47:06;;;;;;;32.40;20.53;;;19.10;99.90;;;;;;4426075;28;658895;-65
2022/07/27 08:49:53;;;;;;;35.40;21.33;;;19.40;99.90;;;;;;4425711;28;659104;-65
2022/07/27 08:52:40;;;;;;;35.00;21.77;;;19.10;99.90;;;;;;4415223;28;658641;-66
2022/07/27 08:55:29;;;;;;;36.83;22.57;;;19.30;99.90;;;;;;4442847;28;659184;-65
2022/07/27 08:58:16;;;;;;;42.60;22.23;;;19.30;99.90;;;;;;4413509;28;659271;-65
2022/07/27 09:01:03;;;;;;;36.97;21.87;;;19.40;99.90;;;;;;4439826;28;659332;-65
2022/07/27 09:03:50;;;;;;;35.03;22.15;;;19.60;99.90;;;;;;4412085;28;658643;-66
2022/07/27 09:06:42;;;;;;;36.47;22.53;;;19.70;99.90;;;;;;4436672;28;659200;-65
2022/07/27 09:09:29;;;;;;;34.37;21.97;;;19.80;99.90;;;;;;4420924;28;659691;-65
2022/07/27 09:12:18;;;;;;;39.50;23.27;;;19.70;99.90;;;;;;4419344;28;658821;-66
2022/07/27 09:15:08;;;;;;;34.30;21.53;;;19.90;99.90;;;;;;4422491;28;659043;-66
2022/07/27 09:17:55;;;;;;;35.10;20.83;;;20.20;99.90;;;;;;4429776;28;658382;-66
2022/07/27 09:20:42;;;;;;;38.80;21.10;;;20.20;99.90;;;;;;4429054;28;659399;-66
2022/07/27 09:23:29;;;;;;;36.03;21.07;;;20.20;99.90;;;;;;4438205;28;658501;-66
2022/07/27 09:26:18;;;;;;;40.57;19.40;;;20.60;99.90;;;;;;4424824;28;658805;-65
2022/07/27 09:29:07;;;;;;;35.17;18.77;;;21.10;99.90;;;;;;4426181;28;658757;-66
2022/07/27 09:31:55;;;;;;;30.83;19.17;;;21.30;99.90;;;;;;4433709;28;658692;-66
2022/07/27 09:34:42;;;;;;;36.67;19.83;;;21.60;99.90;;;;;;4440715;28;658424;-65
2022/07/27 09:37:29;;;;;;;35.30;19.13;;;21.80;99.90;;;;;;4439327;28;659197;-65
2022/07/27 09:40:18;;;;;;;35.67;19.20;;;21.60;99.90;;;;;;4403016;28;658747;-65
2022/07/27 09:43:09;;;;;;;33.27;20.53;;;21.80;99.90;;;;;;4417942;28;658648;-66
2022/07/27 09:46:05;;;;;;;38.10;19.03;;;22.10;99.90;;;;;;4421321;28;660283;-65
2022/07/27 09:48:52;;;;;;;32.17;17.67;;;22.60;99.90;;;;;;4384941;28;659221;-65
2022/07/27 09:51:44;;;;;;;28.93;17.00;;;22.40;99.90;;;;;;4447416;28;658699;-65
2022/07/27 09:54:45;;;;;;;28.53;16.53;;;22.20;99.90;;;;;;4421547;28;658535;-66
2022/07/27 09:57:50;;;;;;;28.87;16.17;;;21.90;99.90;;;;;;4388627;28;659365;-65
2022/07/27 10:00:37;;;;;;;31.57;19.20;;;22.10;99.90;;;;;;4422763;28;658624;-65
2022/07/27 10:03:27;;;;;;;29.40;17.70;;;22.30;99.90;;;;;;4418094;28;658318;-66
2022/07/27 10:06:14;;;;;;;26.67;16.43;;;22.50;99.90;;;;;;4434782;28;659721;-66
2022/07/27 10:09:01;;;;;;;28.17;16.10;;;23.10;99.90;;;;;;4426301;28;658812;-65
2022/07/27 10:11:48;;;;;;;27.00;16.90;;;22.20;99.90;;;;;;4460177;28;660204;-66
2022/07/27 10:14:35;;;;;;;25.77;15.70;;;22.10;99.90;;;;;;4408965;28;658968;-67
2022/07/27 10:17:22;;;;;;;27.67;16.53;;;22.80;99.90;;;;;;4439113;28;660041;-66
2022/07/27 10:20:12;;;;;;;22.23;14.20;;;22.90;99.90;;;;;;4440548;28;658956;-66
2022/07/27 10:22:59;;;;;;;21.38;14.05;;;24.10;99.90;;;;;;4435670;28;659692;-66
2022/07/27 10:25:46;;;;;;;26.40;14.90;;;24.50;99.90;;;;;;4421172;28;659040;-65
2022/07/27 10:28:33;;;;;;;19.80;11.87;;;23.80;99.90;;;;;;4438403;28;659945;-66
2022/07/27 10:31:22;;;;;;;15.83;10.97;;;23.40;99.90;;;;;;4419695;28;658687;-66
2022/07/27 10:34:10;;;;;;;14.63;9.87;;;23.50;99.90;;;;;;4440465;28;659000;-65
2022/07/27 10:37:07;;;;;;;17.67;9.73;;;23.60;99.90;;;;;;4421611;28;659114;-65
2022/07/27 10:40:33;;;;;;;17.30;9.85;;;24.20;99.90;;;;;;4418120;28;658022;-66
2022/07/27 10:43:06;;;;;;;16.00;10.50;;;24.50;99.90;;;;;;4404431;28;657412;-65
2022/07/27 10:45:54;;;;;;;15.75;9.23;;;23.80;99.90;;;;;;4409621;28;660149;-65
2022/07/27 10:48:41;;;;;;;16.00;8.30;;;23.80;99.90;;;;;;4421136;28;657568;-66
2022/07/27 10:51:34;;;;;;;16.03;8.33;;;23.80;99.90;;;;;;4450230;28;659399;-66
2022/07/27 10:54:25;;;;;;;16.90;8.30;;;23.00;99.90;;;;;;4390079;28;658163;-65
2022/07/27 10:57:13;;;;;;;10.13;6.50;;;22.50;99.90;;;;;;4408909;28;658286;-65
2022/07/27 11:00:05;;;;;;;10.23;5.43;;;22.40;99.90;;;;;;4423884;28;657731;-66
2022/07/27 11:02:52;;;;;;;8.53;5.03;;;23.40;99.90;;;;;;4421039;28;658453;-66
2022/07/27 11:05:39;;;;;;;10.87;6.63;;;24.30;99.90;;;;;;4442947;28;657270;-65
2022/07/27 11:08:27;;;;;;;12.02;8.10;;;24.70;99.90;;;;;;4412329;28;657565;-67
2022/07/27 11:11:16;;;;;;;11.32;8.00;;;24.50;98.20;;;;;;4437199;28;657881;-65
2022/07/27 11:14:03;;;;;;;13.68;8.35;;;24.50;99.90;;;;;;4418396;28;659142;-65
2022/07/27 11:16:50;;;;;;;13.95;8.02;;;24.60;99.40;;;;;;4423504;28;659075;-66
2022/07/27 11:19:37;;;;;;;11.27;7.78;;;24.70;97.70;;;;;;4431252;28;657616;-65
2022/07/27 11:22:32;;;;;;;11.27;6.70;;;24.40;96.20;;;;;;4440518;28;657488;-65
2022/07/27 11:25:19;;;;;;;13.13;7.22;;;24.30;99.60;;;;;;4419786;28;657441;-65
2022/07/27 11:28:07;;;;;;;12.25;6.85;;;24.40;99.90;;;;;;4418148;28;657346;-66
2022/07/27 11:30:55;;;;;;;10.05;6.50;;;24.50;98.00;;;;;;4439370;28;658094;-65
2022/07/27 11:33:53;;;;;;;10.27;5.22;;;24.70;95.30;;;;;;4441579;28;658544;-66
2022/07/27 11:36:42;;;;;;;8.00;5.93;;;25.40;91.20;;;;;;4397968;28;657882;-67
2022/07/27 11:39:30;;;;;;;10.00;6.10;;;25.10;92.80;;;;;;4435415;28;657026;-65
2022/07/27 11:42:17;;;;;;;9.70;5.60;;;25.20;94.70;;;;;;4422227;28;658822;-65
2022/07/27 11:45:06;;;;;;;9.15;6.00;;;24.70;94.50;;;;;;4438584;28;656580;-66
2022/07/27 11:47:56;;;;;;;10.68;5.20;;;25.30;94.00;;;;;;4418312;28;656571;-66
2022/07/27 11:50:56;;;;;;;12.63;5.82;;;25.60;92.80;;;;;;4416333;28;658446;-65
2022/07/27 11:53:44;;;;;;;9.80;5.28;;;26.50;89.50;;;;;;4416100;28;657630;-65
2022/07/27 11:56:32;;;;;;;11.45;4.93;;;26.90;89.50;;;;;;4417023;28;657199;-66
2022/07/27 11:59:20;;;;;;;8.32;4.75;;;24.70;90.50;;;;;;4432492;28;657666;-65
2022/07/27 12:02:09;;;;;;;11.38;4.82;;;25.40;90.20;;;;;;4419025;28;657671;-64
2022/07/27 12:04:56;;;;;;;9.10;4.80;;;25.30;89.90;;;;;;4403995;28;658198;-65
2022/07/27 12:07:43;;;;;;;10.30;5.72;;;24.30;90.60;;;;;;4430264;28;656837;-65
2022/07/27 12:10:30;;;;;;;8.90;5.15;;;23.60;96.20;;;;;;4419673;28;658160;-65
2022/07/27 12:13:18;;;;;;;11.10;5.30;;;24.30;91.20;;;;;;4442563;28;658118;-65
2022/07/27 12:16:05;;;;;;;13.20;5.40;;;24.30;92.10;;;;;;4421438;28;657901;-65
2022/07/27 12:18:54;;;;;;;9.57;5.20;;;25.30;91.20;;;;;;4439502;28;658997;-66
2022/07/27 12:21:50;;;;;;;16.85;5.72;;;25.40;91.20;;;;;;4411361;28;656481;-66
2022/07/27 12:24:38;;;;;;;7.00;5.28;;;25.60;88.20;;;;;;4407507;28;657799;-65
2022/07/27 12:27:26;;;;;;;8.80;5.50;;;25.30;91.50;;;;;;4436559;28;657076;-65
2022/07/27 12:30:14;;;;;;;7.15;5.05;;;25.10;90.30;;;;;;4450295;28;657109;-65
2022/07/27 12:33:01;;;;;;;9.10;5.82;;;24.80;91.50;;;;;;4426186;28;657132;-64
2022/07/27 12:35:49;;;;;;;9.52;5.38;;;23.90;94.00;;;;;;4446995;28;657815;-66
2022/07/27 12:38:38;;;;;;;11.55;6.10;;;24.30;94.20;;;;;;4418424;28;657302;-65
2022/07/27 12:41:26;;;;;;;11.10;5.42;;;24.30;92.90;;;;;;4430189;28;657484;-65
2022/07/27 12:44:15;;;;;;;12.75;5.47;;;24.70;92.40;;;;;;4443755;28;658353;-64
2022/07/27 12:47:39;;;;;;;14.57;5.15;;;25.20;93.60;;;;;;4418724;28;658392;-64
2022/07/27 12:50:11;;;;;;;9.02;4.95;;;24.70;93.80;;;;;;4402385;28;658030;-65
2022/07/27 12:53:00;;;;;;;8.43;4.65;;;25.00;92.40;;;;;;4450617;28;657827;-65
2022/07/27 12:55:47;;;;;;;7.18;4.43;;;25.30;91.70;;;;;;4421127;28;658340;-65
2022/07/27 12:58:34;;;;;;;10.38;4.47;;;24.80;90.90;;;;;;4442273;28;657009;-65
2022/07/27 13:01:22;;;;;;;7.25;4.78;;;25.10;90.50;;;;;;4419353;28;658349;-65
2022/07/27 13:04:09;;;;;;;5.50;4.70;;;24.80;90.90;;;;;;4442691;28;658381;-66
2022/07/27 13:06:56;;;;;;;8.95;4.80;;;23.60;91.20;;;;;;4424599;28;656453;-65
2022/07/27 13:09:44;;;;;;;12.23;4.95;;;24.10;93.20;;;;;;4441472;28;656966;-64
2022/07/27 13:12:31;;;;;;;8.40;5.20;;;24.90;91.40;;;;;;4424331;28;657415;-66
2022/07/27 13:15:19;;;;;;;8.35;4.18;;;24.70;90.00;;;;;;4439944;28;657104;-65
2022/07/27 13:18:06;;;;;;;5.63;4.53;;;24.90;87.70;;;;;;4424199;28;656764;-65
2022/07/27 13:20:53;;;;;;;8.68;4.03;;;24.60;89.80;;;;;;4442973;28;658226;-66
2022/07/27 13:23:40;;;;;;;8.57;4.38;;;24.50;88.30;;;;;;4421807;28;656535;-65
2022/07/27 13:26:29;;;;;;;7.88;4.47;;;24.60;87.70;;;;;;4423704;28;657512;-65
2022/07/27 13:29:16;;;;;;;8.00;4.40;;;24.70;90.50;;;;;;4420090;28;656432;-64
2022/07/27 13:32:03;;;;;;;5.10;3.70;;;24.20;83.30;;;;;;4444184;28;657508;-64
2022/07/27 13:34:51;;;;;;;6.32;4.07;;;24.50;84.30;;;;;;4425934;28;656203;-65
2022/07/27 13:37:38;;;;;;;6.38;4.22;;;24.90;86.30;;;;;;4444932;28;657368;-65
2022/07/27 13:40:25;;;;;;;6.35;3.95;;;24.30;81.50;;;;;;4420680;28;657512;-65
2022/07/27 13:43:14;;;;;;;4.53;3.92;;;24.20;90.20;;;;;;4453721;28;658523;-64
2022/07/27 13:46:02;;;;;;;6.10;3.93;;;23.90;84.60;;;;;;4424132;28;656583;-65
2022/07/27 13:48:49;;;;;;;6.25;4.00;;;24.00;88.30;;;;;;4440374;28;656743;-65
2022/07/27 13:51:36;;;;;;;7.97;4.22;;;24.40;85.80;;;;;;4423836;28;656446;-65
2022/07/27 13:54:23;;;;;;;6.43;4.07;;;24.30;85.00;;;;;;4441767;28;657759;-65
2022/07/27 13:57:10;;;;;;;5.65;4.05;;;24.50;87.30;;;;;;4422636;28;656164;-65
2022/07/27 13:59:59;;;;;;;5.70;3.80;;;25.50;86.80;;;;;;4446434;28;656721;-65
2022/07/27 14:02:46;;;;;;;6.00;3.92;;;25.80;80.60;;;;;;4423494;28;656466;-65
2022/07/27 14:05:33;;;;;;;7.28;4.25;;;25.70;81.40;;;;;;4445017;28;657482;-65
2022/07/27 14:08:20;;;;;;;6.13;4.10;;;25.10;90.40;;;;;;4424769;28;656758;-65